createdAt,value
2022-12-19T00:00:50.736Z,77.38
2022-12-19T00:03:29.664Z,79.60
2022-12-19T00:06:03.783Z,85.57
2022-12-19T00:08:34.528Z,85.63
2022-12-19T00:11:05.077Z,98.32
2022-12-19T00:13:40.981Z,83.22
2022-12-19T00:16:14.659Z,94.95
2022-12-19T00:18:48.818Z,99.60
2022-12-19T00:21:20.375Z,95.20
2022-12-19T00:23:50.181Z,84.00
2022-12-19T00:26:22.232Z,81.70
2022-12-19T00:28:55.942Z,79.30
2022-12-19T00:31:28.266Z,95.28
2022-12-19T00:33:58.037Z,78.43
2022-12-19T00:36:29.433Z,83.45
2022-12-19T00:41:31.033Z,90.10
2022-12-19T00:44:04.075Z,101.93
2022-12-19T00:46:34.852Z,85.90
2022-12-19T00:49:06.167Z,75.05
2022-12-19T00:51:37.920Z,88.05
2022-12-19T00:54:08.006Z,86.25
2022-12-19T00:59:10.796Z,76.68
2022-12-19T01:01:42.474Z,79.40
2022-12-19T01:04:32.587Z,80.30
2022-12-19T01:07:07.892Z,83.45
2022-12-19T01:09:38.441Z,89.53
2022-12-19T01:15:04.242Z,78.65
2022-12-19T01:17:43.483Z,79.53
2022-12-19T01:20:15.679Z,85.03
2022-12-19T01:22:46.087Z,76.50
2022-12-19T01:25:16.233Z,95.65
2022-12-19T01:27:45.887Z,91.95
2022-12-19T01:30:16.766Z,106.53
2022-12-19T01:32:46.648Z,74.13
2022-12-19T01:35:21.706Z,100.32
2022-12-19T01:37:55.888Z,90.38
2022-12-19T01:40:37.396Z,80.65
2022-12-19T01:43:07.800Z,88.23
2022-12-19T01:45:45.348Z,87.53
2022-12-19T01:48:22.283Z,92.07
2022-12-19T01:51:01.097Z,76.40
2022-12-19T01:53:46.432Z,91.47
2022-12-19T01:56:21.321Z,76.88
2022-12-19T01:58:56.131Z,93.93
2022-12-19T02:01:50.805Z,82.65
2022-12-19T02:04:23.027Z,92.60
2022-12-19T02:06:53.527Z,83.80
2022-12-19T02:11:55.853Z,77.97
2022-12-19T02:14:26.003Z,97.90
2022-12-19T02:17:02.252Z,88.53
2022-12-19T02:20:04.804Z,93.45
2022-12-19T02:22:45.194Z,89.65
2022-12-19T02:25:44.859Z,93.13
2022-12-19T02:28:46.485Z,98.72
2022-12-19T02:31:22.711Z,85.35
2022-12-19T02:33:57.466Z,99.07
2022-12-19T02:36:32.478Z,87.97
2022-12-19T02:39:11.008Z,86.82
2022-12-19T02:41:46.446Z,79.43
2022-12-19T02:44:20.653Z,89.30
2022-12-19T02:46:54.219Z,89.25
2022-12-19T02:49:30.740Z,96.00
2022-12-19T02:52:10.236Z,97.07
2022-12-19T02:54:44.933Z,85.47
2022-12-19T02:57:21.499Z,98.25
2022-12-19T03:00:03.344Z,84.13
2022-12-19T03:02:43.483Z,75.97
2022-12-19T03:05:22.462Z,90.82
2022-12-19T03:07:57.668Z,87.55
2022-12-19T03:10:35.453Z,90.35
2022-12-19T03:13:11.490Z,83.57
2022-12-19T03:15:42.932Z,70.53
2022-12-19T03:18:14.572Z,81.60
2022-12-19T03:20:50.098Z,82.13
2022-12-19T03:23:20.309Z,79.30
2022-12-19T03:25:52.647Z,77.78
2022-12-19T03:28:28.258Z,73.97
2022-12-19T03:31:00.824Z,79.57
2022-12-19T03:33:36.065Z,82.70
2022-12-19T03:36:08.996Z,80.63
2022-12-19T03:38:41.032Z,78.70
2022-12-19T03:41:12.648Z,75.03
2022-12-19T03:43:44.005Z,74.35
2022-12-19T03:46:17.064Z,86.93
2022-12-19T03:48:50.471Z,78.72
2022-12-19T03:51:31.401Z,78.18
2022-12-19T03:54:04.522Z,73.85
2022-12-19T03:56:41.990Z,67.25
2022-12-19T03:59:15.803Z,64.78
2022-12-19T04:01:47.129Z,73.43
2022-12-19T04:04:19.000Z,59.10
2022-12-19T04:06:49.966Z,76.50
2022-12-19T04:09:24.320Z,71.50
2022-12-19T04:11:56.173Z,66.00
2022-12-19T04:14:29.752Z,63.35
2022-12-19T04:17:08.112Z,72.38
2022-12-19T04:19:45.315Z,57.78
2022-12-19T04:22:19.626Z,54.10
2022-12-19T04:24:50.733Z,62.55
2022-12-19T04:27:22.136Z,79.35
2022-12-19T04:29:56.280Z,62.35
2022-12-19T04:32:27.202Z,63.50
2022-12-19T04:34:59.414Z,59.92
2022-12-19T04:37:29.674Z,65.40
2022-12-19T04:39:59.909Z,61.08
2022-12-19T04:42:29.456Z,56.90
2022-12-19T04:44:59.242Z,65.18
2022-12-19T04:47:28.819Z,70.72
2022-12-19T04:50:00.190Z,59.25
2022-12-19T04:52:29.697Z,66.35
2022-12-19T04:54:59.433Z,56.10
2022-12-19T04:57:31.458Z,67.88
2022-12-19T05:00:01.064Z,69.82
2022-12-19T05:02:30.715Z,63.15
2022-12-19T05:05:02.571Z,69.15
2022-12-19T05:07:32.546Z,67.68
2022-12-19T05:10:02.824Z,72.13
2022-12-19T05:12:32.127Z,63.05
2022-12-19T05:15:02.230Z,69.30
2022-12-19T05:17:31.512Z,58.42
2022-12-19T05:20:02.697Z,69.15
2022-12-19T05:22:32.079Z,84.18
2022-12-19T05:25:01.852Z,68.43
2022-12-19T05:27:31.194Z,63.53
2022-12-19T05:30:01.679Z,73.25
2022-12-19T05:32:33.017Z,75.45
2022-12-19T05:35:04.218Z,66.35
2022-12-19T05:37:33.655Z,68.45
2022-12-19T05:40:03.265Z,71.28
2022-12-19T05:42:32.671Z,80.53
2022-12-19T05:45:02.301Z,68.15
2022-12-19T05:47:31.567Z,72.65
2022-12-19T05:50:02.789Z,78.93
2022-12-19T05:55:01.579Z,62.63
2022-12-19T05:57:31.509Z,83.90
2022-12-19T06:00:01.150Z,81.28
2022-12-19T06:02:34.525Z,79.95
2022-12-19T06:05:06.487Z,78.90
2022-12-19T06:07:36.331Z,71.38
2022-12-19T06:10:07.663Z,83.20
2022-12-19T06:15:06.946Z,73.75
2022-12-19T06:17:36.198Z,79.07
2022-12-19T06:20:08.837Z,81.50
2022-12-19T06:22:38.265Z,74.18
2022-12-19T06:25:08.691Z,71.28
2022-12-19T06:27:38.014Z,72.73
2022-12-19T06:30:09.390Z,73.70
2022-12-19T06:32:38.859Z,64.53
2022-12-19T06:35:10.779Z,71.22
2022-12-19T06:37:40.113Z,67.55
2022-12-19T06:40:32.484Z,68.78
2022-12-19T06:43:00.861Z,54.60
2022-12-19T06:45:30.735Z,65.57
2022-12-19T06:48:00.105Z,65.88
2022-12-19T06:50:31.514Z,71.60
2022-12-19T06:53:01.630Z,66.78
2022-12-19T06:55:31.962Z,68.85
2022-12-19T06:58:01.369Z,63.97
2022-12-19T07:00:31.544Z,58.60
2022-12-19T07:03:01.594Z,56.60
2022-12-19T07:05:33.290Z,53.30
2022-12-19T07:10:32.147Z,66.82
2022-12-19T07:13:01.529Z,61.50
2022-12-19T07:15:33.737Z,58.10
2022-12-19T07:18:05.502Z,63.42
2022-12-19T07:20:44.784Z,70.88
2022-12-19T07:23:19.095Z,62.53
2022-12-19T07:25:48.887Z,63.33
2022-12-19T07:28:18.708Z,63.97
2022-12-19T07:30:48.431Z,64.57
2022-12-19T07:33:21.424Z,58.88
2022-12-19T07:35:53.844Z,64.82
2022-12-19T07:38:23.407Z,58.10
2022-12-19T07:40:53.149Z,57.20
2022-12-19T07:43:22.521Z,63.60
2022-12-19T07:45:56.515Z,60.60
2022-12-19T07:48:25.998Z,62.72
2022-12-19T07:50:57.711Z,58.00
2022-12-19T07:53:27.336Z,59.03
2022-12-19T07:55:57.107Z,58.97
2022-12-19T07:58:26.558Z,52.20
2022-12-19T08:00:57.780Z,63.20
2022-12-19T08:03:28.634Z,57.50
2022-12-19T08:06:04.462Z,61.55
2022-12-19T08:08:35.635Z,58.88
2022-12-19T08:11:09.329Z,57.38
2022-12-19T08:13:44.795Z,55.53
2022-12-19T08:16:16.632Z,56.70
2022-12-19T08:18:46.077Z,69.45
2022-12-19T08:21:17.169Z,64.57
2022-12-19T08:23:47.401Z,55.10
2022-12-19T08:26:22.112Z,68.03
2022-12-19T08:28:51.613Z,62.85
2022-12-19T08:31:25.341Z,57.22
2022-12-19T08:33:55.414Z,65.32
2022-12-19T08:36:27.393Z,56.35
2022-12-19T08:38:57.173Z,55.50
2022-12-19T08:41:27.840Z,49.05
2022-12-19T08:43:58.074Z,50.53
2022-12-19T08:46:27.925Z,53.40
2022-12-19T08:48:58.029Z,59.85
2022-12-19T08:51:29.214Z,56.58
2022-12-19T08:53:58.523Z,54.78
2022-12-19T08:56:28.440Z,43.35
2022-12-19T08:58:58.602Z,51.17
2022-12-19T09:01:27.933Z,47.75
2022-12-19T09:05:01.182Z,53.35
2022-12-19T09:06:51.623Z,45.88
2022-12-19T09:09:21.517Z,50.13
2022-12-19T09:11:50.774Z,47.78
2022-12-19T09:14:20.485Z,49.03
2022-12-19T09:16:51.285Z,43.60
2022-12-19T09:19:21.067Z,52.43
2022-12-19T09:21:51.835Z,49.70
2022-12-19T09:24:21.601Z,46.13
2022-12-19T09:26:50.887Z,45.58
2022-12-19T09:29:22.115Z,44.15
2022-12-19T09:31:56.173Z,45.97
2022-12-19T09:34:37.724Z,42.53
2022-12-19T09:37:16.366Z,51.55
2022-12-19T09:39:47.913Z,50.30
2022-12-19T09:42:40.724Z,45.45
2022-12-19T09:45:31.745Z,48.47
2022-12-19T09:48:03.097Z,35.20
2022-12-19T09:50:46.777Z,51.78
2022-12-19T09:53:25.518Z,46.60
2022-12-19T09:55:56.299Z,42.65
2022-12-19T09:58:33.693Z,48.03
2022-12-19T10:01:09.204Z,41.92
2022-12-19T10:03:41.879Z,38.25
2022-12-19T10:07:12.797Z,41.33
2022-12-19T10:11:36.766Z,44.28
2022-12-19T10:12:45.782Z,43.63
2022-12-19T10:15:22.756Z,39.45
2022-12-19T10:18:07.194Z,43.80
2022-12-19T10:20:39.930Z,39.03
2022-12-19T10:23:35.866Z,39.30
2022-12-19T10:26:12.618Z,38.55
2022-12-19T10:28:54.534Z,47.45
2022-12-19T10:31:30.872Z,46.35
2022-12-19T10:34:06.964Z,40.55
2022-12-19T10:39:44.525Z,42.72
2022-12-19T10:42:21.133Z,48.75
2022-12-19T10:44:52.545Z,45.40
2022-12-19T10:49:51.111Z,41.50
2022-12-19T10:52:48.765Z,43.75
2022-12-19T10:55:45.428Z,37.60
2022-12-19T10:58:22.975Z,37.78
2022-12-19T11:01:06.834Z,39.10
2022-12-19T11:03:37.340Z,43.03
2022-12-19T11:06:08.225Z,40.72
2022-12-19T11:08:38.506Z,44.08
2022-12-19T11:12:49.673Z,42.80
2022-12-19T11:18:25.753Z,45.63
2022-12-19T11:23:58.018Z,39.35
2022-12-19T11:29:33.019Z,38.30
2022-12-19T11:30:41.129Z,34.10
2022-12-19T11:30:45.503Z,40.80
2022-12-19T11:30:59.590Z,37.75
2022-12-19T11:34:52.011Z,36.03
2022-12-19T11:37:28.792Z,38.25
2022-12-19T11:40:04.071Z,39.80
2022-12-19T11:42:39.329Z,45.13
2022-12-19T11:45:16.241Z,35.55
2022-12-19T11:47:54.618Z,40.72
2022-12-19T11:50:28.216Z,43.90
2022-12-19T11:53:18.648Z,35.72
2022-12-19T11:55:53.487Z,41.42
2022-12-19T11:58:26.721Z,40.17
2022-12-19T12:01:03.278Z,40.70
2022-12-19T12:04:02.599Z,35.17
2022-12-19T12:06:35.631Z,40.67
2022-12-19T12:10:22.954Z,40.83
2022-12-19T12:19:39.163Z,49.10
2022-12-19T12:27:29.148Z,42.85
2022-12-19T12:31:21.024Z,38.33
2022-12-19T12:31:40.619Z,42.38
2022-12-19T12:31:52.918Z,35.95
2022-12-19T12:32:01.911Z,45.58
2022-12-19T12:32:02.998Z,41.03
2022-12-19T12:36:56.033Z,40.22
2022-12-19T12:39:24.291Z,45.38
2022-12-19T12:42:06.471Z,42.35
2022-12-19T12:44:44.760Z,45.47
2022-12-19T12:47:20.746Z,44.47
2022-12-19T12:49:55.451Z,46.35
2022-12-19T12:52:34.178Z,46.70
2022-12-19T12:55:06.269Z,41.47
2022-12-19T12:57:38.442Z,45.78
2022-12-19T13:00:23.012Z,49.60
2022-12-19T13:02:57.320Z,53.35
2022-12-19T13:05:42.829Z,48.25
2022-12-19T13:08:47.839Z,47.83
2022-12-19T13:11:56.346Z,41.22
2022-12-19T13:14:50.497Z,50.13
2022-12-19T13:17:25.823Z,45.70
2022-12-19T13:19:58.274Z,51.30
2022-12-19T13:22:43.564Z,46.47
2022-12-19T13:25:50.884Z,47.88
2022-12-19T13:28:44.719Z,44.17
2022-12-19T13:31:22.808Z,40.17
2022-12-19T13:34:19.265Z,41.50
2022-12-19T13:39:50.087Z,42.70
2022-12-19T13:40:11.256Z,52.05
2022-12-19T13:43:11.344Z,37.92
2022-12-19T13:45:49.017Z,45.95
2022-12-19T13:48:24.089Z,45.03
2022-12-19T13:50:54.692Z,50.17
2022-12-19T13:53:26.382Z,42.85
2022-12-19T13:56:02.795Z,46.20
2022-12-19T13:58:35.041Z,42.08
2022-12-19T14:01:20.137Z,47.50
2022-12-19T14:03:53.642Z,46.08
2022-12-19T14:06:26.275Z,45.45
2022-12-19T14:11:26.204Z,46.30
2022-12-19T14:13:38.872Z,42.45
2022-12-19T14:15:12.597Z,52.63
2022-12-19T14:17:50.224Z,43.40
2022-12-19T14:20:57.479Z,46.20
2022-12-19T14:23:12.621Z,50.08
2022-12-19T14:28:54.410Z,42.67
2022-12-19T14:31:26.663Z,46.10
2022-12-19T14:34:19.076Z,42.60
2022-12-19T14:36:53.604Z,51.60
2022-12-19T14:39:29.168Z,50.15
2022-12-19T14:42:48.323Z,39.42
2022-12-19T14:52:25.200Z,45.13
2022-12-19T14:52:50.775Z,40.92
2022-12-19T14:54:37.230Z,44.88
2022-12-19T14:57:25.492Z,52.70
2022-12-19T15:01:07.553Z,45.55
2022-12-19T15:03:24.188Z,50.13
2022-12-19T15:07:04.840Z,48.22
2022-12-19T15:11:00.252Z,49.30
2022-12-19T15:14:47.190Z,45.55
2022-12-19T15:15:19.547Z,41.55
2022-12-19T15:17:51.214Z,48.67
2022-12-19T15:20:20.833Z,59.30
2022-12-19T15:22:50.504Z,46.83
2022-12-19T15:26:01.323Z,52.55
2022-12-19T15:28:16.067Z,47.15
2022-12-19T15:30:49.037Z,52.95
2022-12-19T15:33:19.171Z,54.15
2022-12-19T15:35:48.467Z,44.08
2022-12-19T15:38:18.143Z,56.75
2022-12-19T15:40:49.475Z,47.60
2022-12-19T15:44:01.253Z,51.00
2022-12-19T15:46:13.136Z,48.45
2022-12-19T15:48:47.425Z,55.75
2022-12-19T15:51:17.281Z,51.08
2022-12-19T15:53:47.832Z,43.58
2022-12-19T15:56:28.927Z,49.35
2022-12-19T15:59:00.262Z,53.83
2022-12-19T16:01:32.360Z,45.42
2022-12-19T16:04:03.997Z,49.72
2022-12-19T16:06:33.616Z,46.42
2022-12-19T16:09:03.252Z,55.53
2022-12-19T16:11:34.034Z,56.25
2022-12-19T16:14:03.969Z,55.88
2022-12-19T16:16:33.341Z,49.72
2022-12-19T16:19:03.614Z,46.50
2022-12-19T16:21:34.650Z,56.58
2022-12-19T16:24:04.494Z,52.83
2022-12-19T16:26:39.172Z,50.05
2022-12-19T16:29:18.824Z,52.85
2022-12-19T16:31:48.459Z,55.22
2022-12-19T16:34:20.815Z,49.10
2022-12-19T16:36:50.306Z,46.38
2022-12-19T16:39:20.323Z,45.72
2022-12-19T16:41:51.422Z,50.97
2022-12-19T16:44:22.963Z,53.17
2022-12-19T16:46:53.394Z,52.33
2022-12-19T16:49:24.450Z,50.22
2022-12-19T16:51:54.012Z,53.72
2022-12-19T16:54:24.121Z,61.47
2022-12-19T16:56:55.920Z,49.08
2022-12-19T16:59:29.542Z,54.15
2022-12-19T17:02:00.388Z,60.13
2022-12-19T17:04:31.116Z,56.90
2022-12-19T17:07:01.379Z,48.97
2022-12-19T17:09:31.370Z,61.67
2022-12-19T17:12:03.500Z,51.78
2022-12-19T17:14:34.036Z,53.33
2022-12-19T17:17:03.584Z,63.50
2022-12-19T17:19:38.466Z,44.58
2022-12-19T17:22:13.697Z,55.40
2022-12-19T17:24:44.673Z,60.45
2022-12-19T17:27:17.639Z,56.13
2022-12-19T17:29:48.059Z,56.60
2022-12-19T17:32:23.860Z,60.53
2022-12-19T17:34:54.621Z,60.72
2022-12-19T17:37:24.135Z,57.83
2022-12-19T17:39:53.928Z,60.53
2022-12-19T17:42:28.779Z,58.45
2022-12-19T17:45:01.790Z,58.38
2022-12-19T17:47:31.807Z,54.10
2022-12-19T17:50:01.924Z,54.47
2022-12-19T17:52:35.932Z,59.90
2022-12-19T17:55:20.250Z,55.47
2022-12-19T17:57:51.678Z,59.78
2022-12-19T18:00:30.117Z,58.10
2022-12-19T18:03:05.324Z,57.30
2022-12-19T18:05:37.413Z,59.08
2022-12-19T18:08:18.128Z,54.10
2022-12-19T18:10:48.254Z,55.17
2022-12-19T18:13:19.055Z,54.58
2022-12-19T18:15:48.983Z,57.92
2022-12-19T18:18:24.057Z,66.72
2022-12-19T18:20:53.965Z,65.65
2022-12-19T18:23:25.101Z,60.28
2022-12-19T18:26:01.068Z,54.35
2022-12-19T18:28:32.928Z,56.20
2022-12-19T18:31:05.494Z,63.05
2022-12-19T18:33:40.500Z,63.97
2022-12-19T18:36:16.830Z,62.00
2022-12-19T18:38:46.243Z,51.50
2022-12-19T18:41:16.183Z,58.95
2022-12-19T18:43:47.523Z,63.65
2022-12-19T18:46:21.037Z,58.58
2022-12-19T18:48:50.509Z,59.90
2022-12-19T18:51:23.456Z,60.92
2022-12-19T18:53:53.363Z,54.75
2022-12-19T18:56:23.098Z,61.07
2022-12-19T18:58:53.971Z,62.40
2022-12-19T19:01:24.330Z,62.45
2022-12-19T19:03:56.847Z,65.57
2022-12-19T19:06:32.945Z,60.45
2022-12-19T19:09:05.872Z,61.50
2022-12-19T19:11:36.824Z,63.38
2022-12-19T19:14:07.558Z,62.80
2022-12-19T19:19:10.492Z,64.10
2022-12-19T19:21:41.968Z,71.10
2022-12-19T19:26:44.205Z,63.60
2022-12-19T19:29:15.218Z,59.53
2022-12-19T19:31:47.800Z,67.65
2022-12-19T19:34:22.442Z,68.00
2022-12-19T19:36:56.308Z,70.00
2022-12-19T19:39:27.979Z,63.15
2022-12-19T19:41:57.953Z,72.57
2022-12-19T19:44:28.843Z,65.47
2022-12-19T19:46:58.641Z,69.55
2022-12-19T19:49:28.127Z,62.70
2022-12-19T19:52:02.448Z,76.30
2022-12-19T19:54:32.513Z,80.97
2022-12-19T19:57:02.633Z,70.90
2022-12-19T19:59:33.814Z,69.40
2022-12-19T20:02:03.738Z,67.57
2022-12-19T20:04:33.373Z,69.22
2022-12-19T20:07:03.587Z,83.55
2022-12-19T20:09:33.026Z,70.35
2022-12-19T20:12:03.226Z,81.30
2022-12-19T20:14:34.008Z,80.25
2022-12-19T20:17:04.012Z,77.70
2022-12-19T20:19:33.679Z,67.82
2022-12-19T20:22:03.671Z,67.05
2022-12-19T20:24:33.526Z,69.97
2022-12-19T20:27:05.347Z,71.28
2022-12-19T20:29:36.928Z,72.22
2022-12-19T20:32:07.410Z,66.22
2022-12-19T20:34:36.811Z,62.07
2022-12-19T20:37:06.552Z,75.28
2022-12-19T20:39:36.287Z,72.07
2022-12-19T20:42:06.797Z,72.20
2022-12-19T20:44:37.736Z,68.30
2022-12-19T20:47:07.657Z,71.93
2022-12-19T20:49:37.153Z,69.97
2022-12-19T20:52:06.979Z,71.40
2022-12-19T20:54:36.375Z,63.75
2022-12-19T20:57:06.121Z,71.40
2022-12-19T20:59:37.054Z,69.00
2022-12-19T21:02:07.351Z,69.53
2022-12-19T21:04:37.541Z,72.43
2022-12-19T21:07:07.489Z,72.38
2022-12-19T21:09:37.406Z,65.97
2022-12-19T21:12:07.601Z,58.33
2022-12-19T21:14:38.378Z,64.45
2022-12-19T21:17:08.013Z,59.30
2022-12-19T21:19:37.669Z,63.35
2022-12-19T21:22:07.891Z,62.05
2022-12-19T21:24:37.300Z,51.58
2022-12-19T21:27:06.944Z,65.78
2022-12-19T21:29:37.873Z,56.15
2022-12-19T21:32:10.966Z,62.65
2022-12-19T21:34:42.845Z,56.90
2022-12-19T21:37:12.823Z,58.78
2022-12-19T21:39:42.111Z,57.88
2022-12-19T21:42:12.047Z,57.50
2022-12-19T21:44:42.782Z,56.25
2022-12-19T21:49:42.095Z,56.65
2022-12-19T21:52:12.122Z,52.40
2022-12-19T21:54:41.650Z,49.30
2022-12-19T21:57:11.902Z,58.58
2022-12-19T21:59:42.723Z,55.17
2022-12-19T22:02:13.339Z,46.65
2022-12-19T22:04:42.651Z,51.90
2022-12-19T22:07:12.486Z,52.50
2022-12-19T22:09:41.774Z,43.25
2022-12-19T22:12:14.107Z,38.33
2022-12-19T22:14:45.278Z,40.63
2022-12-19T22:17:16.404Z,42.50
2022-12-19T22:19:46.709Z,43.83
2022-12-19T22:22:16.351Z,38.30
2022-12-19T22:24:45.792Z,37.25
2022-12-19T22:27:15.625Z,36.25
2022-12-19T22:29:46.350Z,34.33
2022-12-19T22:34:48.424Z,30.88
2022-12-19T22:37:18.228Z,28.02
2022-12-19T22:39:47.505Z,29.40
2022-12-19T22:42:17.477Z,28.63
2022-12-19T22:44:48.188Z,33.35
2022-12-19T22:49:46.927Z,26.27
2022-12-19T22:52:16.597Z,25.75
2022-12-19T22:54:46.254Z,27.90
2022-12-19T22:57:15.963Z,26.85
2022-12-19T22:59:45.461Z,25.05
2022-12-19T23:02:17.104Z,22.53
2022-12-19T23:07:17.802Z,22.35
2022-12-19T23:09:47.354Z,24.88
2022-12-19T23:12:17.484Z,27.70
2022-12-19T23:14:46.973Z,24.00
2022-12-19T23:17:18.322Z,25.38
2022-12-19T23:19:47.628Z,23.80
2022-12-19T23:22:17.384Z,24.25
2022-12-19T23:24:48.487Z,27.40
2022-12-19T23:29:47.781Z,22.27
2022-12-19T23:32:19.001Z,19.50
2022-12-19T23:34:48.319Z,21.63
2022-12-19T23:37:18.033Z,19.45
2022-12-19T23:39:47.297Z,20.98
2022-12-19T23:42:17.280Z,19.67
2022-12-19T23:44:46.592Z,17.33
2022-12-19T23:47:18.119Z,17.42
2022-12-19T23:49:47.511Z,15.77
2022-12-19T23:52:17.418Z,19.58
2022-12-19T23:54:47.819Z,15.43
2022-12-19T23:59:47.102Z,15.93
